Time;durP1;ratioP1;P1;durP2;ratioP2;P2;SDS_P1;SDS_P2;PMS_P1;PMS_P2;Temp;Humidity;BMP_temperature;BMP_pressure;BME280_temperature;BME280_humidity;BME280_pressure;Samples;Min_cycle;Max_cycle;Signal;HPM_P1;HPM_P2
2023/08/13 00:00:48;;;;;;;;;;;;;;;17.40;54.70;101141.25;5097491;28;1041;-49
2023/08/13 00:03:14;;;;;;;;;;;;;;;17.25;55.01;101149.41;5096797;28;1902;-47
2023/08/13 00:05:40;;;;;;;;;;;;;;;16.95;55.19;101137.22;5097314;28;1137;-49
2023/08/13 00:08:05;;;;;;;;;;;;;;;16.83;54.72;101136.56;5096726;28;837;-46
2023/08/13 00:10:31;;;;;;;;;;;;;;;16.78;54.61;101134.63;5096906;28;1122;-49
2023/08/13 00:12:56;;;;;;;;;;;;;;;16.72;54.16;101146.69;5083321;28;1323;-49
2023/08/13 00:15:22;;;;;;;;;;;;;;;16.65;54.29;101146.91;5097134;28;1026;-48
2023/08/13 00:17:47;;;;;;;;;;;;;;;16.63;54.17;101149.06;5095338;28;2502;-46
2023/08/13 00:20:13;;;;;;;;;;;;;;;16.56;54.03;101141.09;5087933;28;901;-46
2023/08/13 00:22:39;;;;;;;;;;;;;;;16.51;54.04;101145.69;5096954;28;2000;-44
2023/08/13 00:25:04;;;;;;;;;;;;;;;16.49;53.99;101142.41;5096576;28;1086;-51
2023/08/13 00:27:30;;;;;;;;;;;;;;;16.64;54.36;101145.25;5096441;28;1093;-46
2023/08/13 00:29:56;;;;;;;;;;;;;;;17.70;54.34;101149.84;5096911;28;1109;-50
2023/08/13 00:32:21;;;;;;;;;;;;;;;17.10;55.27;101142.78;5096804;28;1035;-47
2023/08/13 00:34:47;;;;;;;;;;;;;;;16.91;55.21;101142.44;5096519;28;1089;-46
2023/08/13 00:37:12;;;;;;;;;;;;;;;16.83;54.77;101144.81;5096853;28;982;-45
2023/08/13 00:39:38;;;;;;;;;;;;;;;16.79;54.34;101138.19;5095793;28;1019;-51
2023/08/13 00:42:04;;;;;;;;;;;;;;;16.70;54.31;101133.19;5096156;28;920;-48
2023/08/13 00:44:29;;;;;;;;;;;;;;;16.64;54.19;101134.28;5077804;28;1982;-49
2023/08/13 00:46:55;;;;;;;;;;;;;;;16.71;53.70;101126.63;5077733;28;1833;-50
2023/08/13 00:49:21;;;;;;;;;;;;;;;16.51;54.32;101124.59;5067620;28;1090;-49
2023/08/13 00:51:46;;;;;;;;;;;;;;;16.54;53.84;101123.22;5075591;28;1262;-48
2023/08/13 00:54:12;;;;;;;;;;;;;;;16.51;53.88;101129.22;5096053;28;1027;-45
2023/08/13 00:56:38;;;;;;;;;;;;;;;16.41;54.08;101119.84;5077749;28;1117;-48
2023/08/13 00:59:04;;;;;;;;;;;;;;;16.40;54.00;101114.63;5076932;28;1388;-47
2023/08/13 01:01:29;;;;;;;;;;;;;;;16.92;54.70;101113.03;5077811;28;1071;-49
2023/08/13 01:03:55;;;;;;;;;;;;;;;17.48;54.62;101109.66;5096072;28;1913;-50
2023/08/13 01:06:24;;;;;;;;;;;;;;;17.03;55.05;101113.91;5077515;28;1237;-50
2023/08/13 01:09:06;;;;;;;;;;;;;;;16.90;55.02;101115.19;5096058;28;1034;-49
2023/08/13 01:11:43;;;;;;;;;;;;;;;16.75;54.52;101113.19;5077960;28;1034;-48
2023/08/13 01:14:17;;;;;;;;;;;;;;;16.69;54.38;101114.25;5096262;28;1098;-47
2023/08/13 01:16:42;;;;;;;;;;;;;;;16.63;54.36;101118.88;5094134;28;2460;-48
2023/08/13 01:19:14;;;;;;;;;;;;;;;16.60;53.96;101116.66;5077849;28;1142;-49
2023/08/13 01:21:39;;;;;;;;;;;;;;;16.52;54.10;101126.25;5078013;28;1106;-46
2023/08/13 01:24:05;;;;;;;;;;;;;;;16.51;53.87;101123.75;5095246;28;1905;-49
2023/08/13 01:26:34;;;;;;;;;;;;;;;16.52;53.82;101129.00;5087752;28;1041;-49
2023/08/13 01:29:03;;;;;;;;;;;;;;;16.73;54.50;101118.97;5091314;28;1027;-49
2023/08/13 01:31:29;;;;;;;;;;;;;;;17.72;54.44;101125.63;5077452;28;1286;-48
2023/08/13 01:33:54;;;;;;;;;;;;;;;17.19;55.02;101120.28;5095214;28;998;-49
2023/08/13 01:36:20;;;;;;;;;;;;;;;16.94;54.93;101127.31;5077868;28;1071;-48
2023/08/13 01:38:45;;;;;;;;;;;;;;;16.85;54.70;101118.72;5077847;28;1579;-51
2023/08/13 01:41:11;;;;;;;;;;;;;;;16.72;54.67;101124.72;5077957;28;1178;-47
2023/08/13 01:43:36;;;;;;;;;;;;;;;16.70;54.09;101116.72;5095224;28;1913;-46
2023/08/13 01:46:02;;;;;;;;;;;;;;;16.64;54.19;101128.78;5095857;28;2195;-49
2023/08/13 01:48:28;;;;;;;;;;;;;;;16.62;53.88;101124.63;5093389;28;1053;-45
2023/08/13 01:50:53;;;;;;;;;;;;;;;16.52;54.02;101125.41;5083836;28;1079;-46
2023/08/13 01:53:19;;;;;;;;;;;;;;;16.57;53.76;101129.00;5099567;28;983;-48
2023/08/13 01:55:45;;;;;;;;;;;;;;;16.47;53.78;101128.13;5100083;28;999;-50
2023/08/13 01:58:10;;;;;;;;;;;;;;;16.43;53.70;101134.13;5081633;28;1302;-49
2023/08/13 02:00:36;;;;;;;;;;;;;;;16.46;53.76;101129.22;5081664;28;1214;-46
2023/08/13 02:03:02;;;;;;;;;;;;;;;17.26;54.61;101129.94;5099678;28;1975;-51
2023/08/13 02:05:27;;;;;;;;;;;;;;;17.49;54.76;101132.44;5081154;28;1186;-48
2023/08/13 02:07:53;;;;;;;;;;;;;;;17.02;55.07;101134.22;5099158;28;1172;-50
2023/08/13 02:10:21;;;;;;;;;;;;;;;16.88;54.68;101133.84;5081624;28;1166;-48
2023/08/13 02:12:47;;;;;;;;;;;;;;;16.78;54.54;101134.63;5098880;28;995;-49
2023/08/13 02:15:12;;;;;;;;;;;;;;;16.74;54.29;101139.81;5081386;28;2030;-49
2023/08/13 02:17:43;;;;;;;;;;;;;;;16.67;54.31;101147.47;5079794;28;2637;-47
2023/08/13 02:20:10;;;;;;;;;;;;;;;16.56;54.26;101148.50;5099407;28;1016;-49
2023/08/13 02:22:36;;;;;;;;;;;;;;;16.57;54.00;101139.16;5099407;28;1964;-50
2023/08/13 02:25:01;;;;;;;;;;;;;;;16.51;53.85;101146.53;5098953;28;1014;-51
2023/08/13 02:27:27;;;;;;;;;;;;;;;16.49;53.74;101153.38;5098826;28;1069;-50
2023/08/13 02:29:52;;;;;;;;;;;;;;;16.42;53.71;101148.97;5099077;28;1137;-49
2023/08/13 02:32:18;;;;;;;;;;;;;;;17.00;54.62;101142.75;5080480;28;1470;-47
2023/08/13 02:34:44;;;;;;;;;;;;;;;17.38;54.76;101143.44;5099120;28;1029;-46
2023/08/13 02:37:10;;;;;;;;;;;;;;;16.99;55.22;101146.56;5098815;28;994;-50
2023/08/13 02:39:35;;;;;;;;;;;;;;;16.85;54.88;101146.19;5080808;28;1178;-51
2023/08/13 02:42:02;;;;;;;;;;;;;;;16.83;54.50;101148.41;5080449;28;1278;-49
2023/08/13 02:44:28;;;;;;;;;;;;;;;16.65;54.51;101149.66;5080295;28;1987;-47
2023/08/13 02:46:54;;;;;;;;;;;;;;;16.59;54.39;101145.22;5090599;28;2171;-51
2023/08/13 02:49:19;;;;;;;;;;;;;;;16.57;54.21;101150.16;5080824;28;1293;-48
2023/08/13 02:51:45;;;;;;;;;;;;;;;16.55;53.85;101152.31;5098756;28;1170;-50
2023/08/13 02:54:10;;;;;;;;;;;;;;;16.52;53.86;101147.38;5098673;28;1172;-51
2023/08/13 02:56:36;;;;;;;;;;;;;;;16.99;54.53;101154.81;5098105;28;1113;-46
2023/08/13 02:59:01;;;;;;;;;;;;;;;17.58;54.77;101152.84;5098721;28;1123;-51
2023/08/13 03:01:27;;;;;;;;;;;;;;;17.12;55.11;101138.94;5080449;28;1170;-51
2023/08/13 03:03:54;;;;;;;;;;;;;;;16.91;55.12;101149.81;5079909;28;1909;-46
2023/08/13 03:06:20;;;;;;;;;;;;;;;16.80;54.73;101146.16;5098376;28;1109;-46
2023/08/13 03:08:46;;;;;;;;;;;;;;;16.74;54.61;101148.03;5098144;28;893;-48
2023/08/13 03:11:11;;;;;;;;;;;;;;;16.68;54.30;101145.56;5098462;28;1092;-45
2023/08/13 03:13:37;;;;;;;;;;;;;;;16.64;53.96;101149.94;5098021;28;1101;-46
2023/08/13 03:16:03;;;;;;;;;;;;;;;16.54;54.08;101146.00;5097739;28;2253;-45
2023/08/13 03:18:29;;;;;;;;;;;;;;;16.55;54.03;101144.94;5080083;28;1209;-47
2023/08/13 03:20:56;;;;;;;;;;;;;;;16.48;53.73;101143.50;5079787;28;1553;-49
2023/08/13 03:23:22;;;;;;;;;;;;;;;16.42;53.84;101148.97;5080016;28;1925;-50
2023/08/13 03:25:48;;;;;;;;;;;;;;;16.41;53.78;101155.53;5079314;28;1621;-51
2023/08/13 03:28:14;;;;;;;;;;;;;;;16.42;53.49;101148.13;5098220;28;1196;-51
2023/08/13 03:30:39;;;;;;;;;;;;;;;16.88;54.45;101150.34;5098081;28;1031;-51
2023/08/13 03:33:05;;;;;;;;;;;;;;;17.57;54.51;101142.94;5078957;28;1221;-53
2023/08/13 03:35:35;;;;;;;;;;;;;;;17.01;55.21;101152.66;5079981;28;1174;-44
2023/08/13 03:38:00;;;;;;;;;;;;;;;16.82;54.87;101148.66;5097525;28;1089;-51
2023/08/13 03:40:26;;;;;;;;;;;;;;;16.72;54.72;101146.69;5097807;28;1158;-51
2023/08/13 03:42:51;;;;;;;;;;;;;;;16.66;54.75;101147.72;5097789;28;1897;-51
2023/08/13 03:45:17;;;;;;;;;;;;;;;16.62;54.39;101147.44;5096320;28;1250;-50
2023/08/13 03:47:43;;;;;;;;;;;;;;;16.50;54.67;101152.31;5094737;28;1885;-52
2023/08/13 03:50:08;;;;;;;;;;;;;;;16.59;54.05;101151.53;5097678;28;1216;-48
2023/08/13 03:52:34;;;;;;;;;;;;;;;16.55;54.08;101141.34;5094174;28;1082;-48
2023/08/13 03:54:59;;;;;;;;;;;;;;;16.89;54.88;101143.78;5076382;28;1291;-49
2023/08/13 03:57:25;;;;;;;;;;;;;;;17.52;54.96;101146.50;5095009;28;1202;-46
2023/08/13 03:59:51;;;;;;;;;;;;;;;17.22;56.06;101149.97;5074588;28;1159;-45
2023/08/13 04:02:17;;;;;;;;;;;;;;;17.06;55.89;101152.66;5068806;28;1086;-49
2023/08/13 04:04:44;;;;;;;;;;;;;;;16.90;55.52;101146.25;5092602;28;1000;-47
2023/08/13 04:07:10;;;;;;;;;;;;;;;16.87;55.04;101148.66;5078867;28;1195;-46
2023/08/13 04:09:36;;;;;;;;;;;;;;;16.85;54.73;101153.63;5083045;28;1028;-47
2023/08/13 04:12:02;;;;;;;;;;;;;;;16.74;54.76;101139.81;5097270;28;1003;-43
2023/08/13 04:14:28;;;;;;;;;;;;;;;16.70;54.25;101149.66;5096146;28;1130;-45
2023/08/13 04:16:53;;;;;;;;;;;;;;;16.66;54.53;101150.47;5077192;28;2593;-42
2023/08/13 04:19:19;;;;;;;;;;;;;;;16.60;54.23;101152.34;5078859;28;1273;-45
2023/08/13 04:21:45;;;;;;;;;;;;;;;16.58;54.33;101151.81;5096711;28;878;-47
2023/08/13 04:24:11;;;;;;;;;;;;;;;16.62;54.59;101152.94;5078762;28;1905;-46
2023/08/13 04:26:36;;;;;;;;;;;;;;;16.58;54.61;101144.38;5096511;28;1061;-48
2023/08/13 04:29:04;;;;;;;;;;;;;;;16.49;54.76;101150.63;5077894;28;1328;-48
2023/08/13 04:31:29;;;;;;;;;;;;;;;16.52;54.21;101147.38;5096942;28;1088;-47
2023/08/13 04:33:55;;;;;;;;;;;;;;;16.63;54.73;101143.59;5096189;28;940;-44
2023/08/13 04:36:21;;;;;;;;;;;;;;;16.55;54.85;101142.19;5096101;28;1806;-45
2023/08/13 04:38:46;;;;;;;;;;;;;;;16.46;54.79;101142.94;5078589;28;1153;-47
2023/08/13 04:41:12;;;;;;;;;;;;;;;16.50;54.93;101150.38;5076251;28;1265;-47
2023/08/13 04:43:41;;;;;;;;;;;;;;;17.67;55.93;101142.13;5078293;28;1909;-43
2023/08/13 04:46:07;;;;;;;;;;;;;;;17.18;57.88;101154.34;5079790;28;1816;-46
2023/08/13 04:48:42;;;;;;;;;;;;;;;17.49;56.75;101152.53;5069558;28;1184;-45
2023/08/13 04:51:09;;;;;;;;;;;;;;;17.05;54.30;101141.94;5078300;28;1268;-48
2023/08/13 04:53:35;;;;;;;;;;;;;;;16.94;52.57;101154.78;5078077;28;1346;-43
2023/08/13 04:56:01;;;;;;;;;;;;;;;17.67;54.86;101151.22;5066305;28;1485;-44
2023/08/13 04:58:27;;;;;;;;;;;;;;;17.18;53.50;101154.34;5078564;28;1154;-43
2023/08/13 05:00:52;;;;;;;;;;;;;;;17.53;53.38;101155.56;5078412;28;1157;-44
2023/08/13 05:03:20;;;;;;;;;;;;;;;17.51;53.41;101158.59;5096123;28;1977;-46
2023/08/13 05:05:47;;;;;;;;;;;;;;;17.27;52.01;101158.25;5078132;28;1146;-42
2023/08/13 05:08:12;;;;;;;;;;;;;;;17.14;50.69;101164.22;5078098;28;1283;-47
2023/08/13 05:10:38;;;;;;;;;;;;;;;17.08;49.74;101155.97;5095971;28;1065;-42
2023/08/13 05:13:04;;;;;;;;;;;;;;;17.73;52.15;101169.38;5096204;28;1054;-46
2023/08/13 05:15:29;;;;;;;;;;;;;;;17.35;50.94;101171.47;5077645;28;2375;-46
2023/08/13 05:17:57;;;;;;;;;;;;;;;17.25;49.70;101171.41;5073191;28;1307;-46
2023/08/13 05:20:23;;;;;;;;;;;;;;;17.26;48.85;101175.81;5073689;28;1214;-45
2023/08/13 05:22:49;;;;;;;;;;;;;;;17.97;50.53;101182.66;5093774;28;1905;-49
2023/08/13 05:25:14;;;;;;;;;;;;;;;17.52;50.33;101181.44;5065406;28;1003;-46
2023/08/13 05:27:41;;;;;;;;;;;;;;;17.42;49.24;101184.97;5078416;28;1293;-45
2023/08/13 05:30:09;;;;;;;;;;;;;;;17.23;48.59;101185.41;5077409;28;1454;-48
2023/08/13 05:32:35;;;;;;;;;;;;;;;18.33;50.52;101184.59;5095326;28;1516;-46
2023/08/13 05:35:01;;;;;;;;;;;;;;;17.74;50.40;101182.03;5082616;28;971;-43
2023/08/13 05:37:27;;;;;;;;;;;;;;;17.49;49.37;101176.44;5093893;28;1363;-46
2023/08/13 05:39:52;;;;;;;;;;;;;;;17.39;48.66;101183.59;5077433;28;2133;-47
2023/08/13 05:42:19;;;;;;;;;;;;;;;17.35;48.22;101176.13;5096007;28;1047;-45
2023/08/13 05:44:44;;;;;;;;;;;;;;;17.28;47.65;101181.88;5092581;28;1909;-52
2023/08/13 05:47:11;;;;;;;;;;;;;;;18.25;49.28;101184.03;5066809;28;2476;-47
2023/08/13 05:49:38;;;;;;;;;;;;;;;17.71;49.23;101179.84;5077610;28;1212;-48
2023/08/13 05:52:04;;;;;;;;;;;;;;;17.53;48.76;101180.31;5077690;28;1298;-48
2023/08/13 05:54:29;;;;;;;;;;;;;;;17.36;48.38;101184.13;5093580;28;1394;-49
2023/08/13 05:56:55;;;;;;;;;;;;;;;17.40;47.65;101171.50;5084923;28;842;-44
2023/08/13 05:59:20;;;;;;;;;;;;;;;17.49;47.42;101181.94;5095306;28;1121;-44
2023/08/13 06:01:46;;;;;;;;;;;;;;;18.01;49.11;101183.75;5095691;28;1097;-50
2023/08/13 06:04:12;;;;;;;;;;;;;;;17.61;48.97;101185.28;5095736;28;1966;-49
2023/08/13 06:06:37;;;;;;;;;;;;;;;17.62;48.21;101175.94;5076977;28;1066;-44
2023/08/13 06:09:03;;;;;;;;;;;;;;;17.43;47.78;101181.09;5095060;28;1106;-46
2023/08/13 06:11:29;;;;;;;;;;;;;;;17.42;47.33;101180.28;5095913;28;1070;-46
2023/08/13 06:13:55;;;;;;;;;;;;;;;17.44;46.87;101185.50;5095818;28;1078;-43
2023/08/13 06:16:20;;;;;;;;;;;;;;;17.37;46.69;101183.00;5077449;28;2457;-46
2023/08/13 06:18:46;;;;;;;;;;;;;;;18.19;47.79;101184.31;5095094;28;1007;-48
2023/08/13 06:21:11;;;;;;;;;;;;;;;17.66;48.23;101182.56;5091509;28;1589;-46
2023/08/13 06:23:38;;;;;;;;;;;;;;;17.59;47.64;101184.75;5092766;28;1988;-50
2023/08/13 06:26:04;;;;;;;;;;;;;;;17.53;47.67;101191.31;5093458;28;1166;-42
2023/08/13 06:28:30;;;;;;;;;;;;;;;18.16;48.66;101187.63;5091520;28;884;-45
2023/08/13 06:30:55;;;;;;;;;;;;;;;17.79;48.42;101189.47;5094452;28;1103;-45
2023/08/13 06:33:21;;;;;;;;;;;;;;;17.73;48.00;101183.13;5090879;28;995;-46
2023/08/13 06:35:47;;;;;;;;;;;;;;;17.74;47.38;101190.28;5095214;28;1066;-46
2023/08/13 06:38:13;;;;;;;;;;;;;;;17.58;47.05;101185.84;5086428;28;1034;-43
2023/08/13 06:40:38;;;;;;;;;;;;;;;17.57;46.91;101178.69;5092450;28;1154;-46
2023/08/13 06:43:04;;;;;;;;;;;;;;;17.55;46.44;101178.94;5089475;28;1897;-48
2023/08/13 06:45:29;;;;;;;;;;;;;;;17.50;46.66;101183.59;5098265;28;1799;-48
2023/08/13 06:47:56;;;;;;;;;;;;;;;17.53;46.45;101172.06;5098589;28;1074;-43
2023/08/13 06:50:21;;;;;;;;;;;;;;;17.43;46.53;101181.94;5101275;28;1334;-48
2023/08/13 06:52:47;;;;;;;;;;;;;;;17.42;46.46;101172.03;5088224;28;1025;-46
2023/08/13 06:55:12;;;;;;;;;;;;;;;17.35;46.21;101167.88;5095927;28;960;-49
2023/08/13 06:57:39;;;;;;;;;;;;;;;17.47;45.94;101184.97;5098835;28;1065;-46
2023/08/13 07:00:05;;;;;;;;;;;;;;;17.41;46.36;101175.06;5098573;28;1229;-43
2023/08/13 07:02:31;;;;;;;;;;;;;;;17.38;46.39;101178.34;5099141;28;1910;-49
2023/08/13 07:04:57;;;;;;;;;;;;;;;17.35;46.22;101178.88;5098860;28;1070;-45
2023/08/13 07:07:22;;;;;;;;;;;;;;;17.36;46.29;101175.88;5098719;28;1070;-45
2023/08/13 07:09:48;;;;;;;;;;;;;;;17.37;46.06;101171.19;5098000;28;1051;-47
2023/08/13 07:12:13;;;;;;;;;;;;;;;17.36;46.06;101173.13;5098425;28;1076;-48
2023/08/13 07:14:39;;;;;;;;;;;;;;;17.27;46.28;101164.56;5080666;28;1129;-46
2023/08/13 07:17:05;;;;;;;;;;;;;;;18.38;47.39;101170.84;5096675;28;2626;-48
2023/08/13 07:19:32;;;;;;;;;;;;;;;17.82;48.43;101160.59;5098006;28;1113;-45
2023/08/13 07:21:58;;;;;;;;;;;;;;;17.74;47.77;101168.28;5098376;28;1413;-48
2023/08/13 07:24:23;;;;;;;;;;;;;;;17.62;47.69;101167.69;5098498;28;1909;-43
2023/08/13 07:26:49;;;;;;;;;;;;;;;17.60;47.01;101161.66;5098352;28;1022;-47
2023/08/13 07:29:15;;;;;;;;;;;;;;;17.56;46.98;101171.53;5098900;28;995;-47
2023/08/13 07:31:41;;;;;;;;;;;;;;;17.54;46.98;101162.72;5098282;28;1043;-48
2023/08/13 07:34:06;;;;;;;;;;;;;;;17.55;46.69;101169.88;5097708;28;1071;-49
2023/08/13 07:36:32;;;;;;;;;;;;;;;17.50;46.41;101167.09;5098153;28;1157;-48
2023/08/13 07:38:57;;;;;;;;;;;;;;;17.49;46.70;101165.44;5098179;28;1038;-44
2023/08/13 07:41:23;;;;;;;;;;;;;;;17.51;46.48;101157.78;5097544;28;1184;-49
2023/08/13 07:43:48;;;;;;;;;;;;;;;17.47;46.46;101159.41;5097656;28;1910;-46
2023/08/13 07:46:14;;;;;;;;;;;;;;;17.49;46.50;101158.03;5091061;28;2219;-47
2023/08/13 07:48:40;;;;;;;;;;;;;;;17.53;46.05;101172.06;5095514;28;1086;-47
2023/08/13 07:51:05;;;;;;;;;;;;;;;17.47;46.54;101170.41;5097532;28;1226;-44
2023/08/13 07:53:31;;;;;;;;;;;;;;;17.48;46.47;101169.31;5098100;28;1134;-45
2023/08/13 07:55:57;;;;;;;;;;;;;;;17.40;46.37;101174.25;5097828;28;1581;-48
2023/08/13 07:58:22;;;;;;;;;;;;;;;17.46;46.07;101161.34;5093978;28;1340;-42
2023/08/13 08:00:48;;;;;;;;;;;;;;;17.68;46.69;101172.09;5097574;28;879;-43
2023/08/13 08:03:14;;;;;;;;;;;;;;;18.05;47.93;101168.34;5097594;28;1972;-45
2023/08/13 08:05:41;;;;;;;;;;;;;;;17.85;47.44;101163.63;5097388;28;912;-48
2023/08/13 08:08:06;;;;;;;;;;;;;;;17.68;47.45;101163.84;5097491;28;1196;-47
2023/08/13 08:10:32;;;;;;;;;;;;;;;17.71;47.03;101165.25;5095499;28;1130;-50
2023/08/13 08:12:57;;;;;;;;;;;;;;;17.71;46.73;101156.97;5095955;28;1139;-49
2023/08/13 08:15:23;;;;;;;;;;;;;;;17.66;46.44;101160.56;5096912;28;1301;-47
2023/08/13 08:17:49;;;;;;;;;;;;;;;17.65;46.75;101153.41;5077969;28;2537;-43
2023/08/13 08:20:14;;;;;;;;;;;;;;;17.62;46.68;101170.44;5097350;28;1085;-46
2023/08/13 08:22:40;;;;;;;;;;;;;;;17.58;46.43;101163.84;5096777;28;1901;-49
2023/08/13 08:25:07;;;;;;;;;;;;;;;17.66;46.19;101162.50;5097227;28;1062;-47
2023/08/13 08:27:32;;;;;;;;;;;;;;;17.52;46.15;101163.00;5090144;28;1022;-45
2023/08/13 08:29:58;;;;;;;;;;;;;;;17.51;46.19;101163.28;5097490;28;1058;-45
2023/08/13 08:32:23;;;;;;;;;;;;;;;17.53;46.33;101152.81;5097205;28;1026;-47
2023/08/13 08:34:49;;;;;;;;;;;;;;;17.50;46.35;101137.72;5096461;28;836;-49
2023/08/13 08:37:14;;;;;;;;;;;;;;;17.59;46.13;101147.06;5096949;28;1101;-49
2023/08/13 08:39:40;;;;;;;;;;;;;;;17.49;46.23;101140.69;5088816;28;1367;-49
2023/08/13 08:42:06;;;;;;;;;;;;;;;17.52;45.95;101137.44;5087271;28;1225;-45
2023/08/13 08:44:31;;;;;;;;;;;;;;;17.50;46.44;101145.13;5075412;28;1909;-49
2023/08/13 08:46:57;;;;;;;;;;;;;;;17.52;46.31;101149.25;5074813;28;2178;-44
2023/08/13 08:49:22;;;;;;;;;;;;;;;17.62;46.10;101145.69;5078599;28;921;-47
2023/08/13 08:51:48;;;;;;;;;;;;;;;17.52;46.45;101137.44;5071332;28;1099;-47
2023/08/13 08:54:14;;;;;;;;;;;;;;;17.60;45.88;101145.16;5092344;28;1117;-48
2023/08/13 08:56:40;;;;;;;;;;;;;;;17.58;46.00;101139.09;5096493;28;1073;-44
2023/08/13 08:59:05;;;;;;;;;;;;;;;17.51;45.98;101135.78;5096625;28;1032;-47
2023/08/13 09:01:31;;;;;;;;;;;;;;;17.61;45.84;101133.03;5096563;28;1079;-48
2023/08/13 09:03:57;;;;;;;;;;;;;;;17.48;46.94;101120.66;5096518;28;1982;-47
2023/08/13 09:06:23;;;;;;;;;;;;;;;17.94;46.80;101134.50;5096567;28;1190;-49
2023/08/13 09:08:48;;;;;;;;;;;;;;;17.94;48.12;101130.94;5096304;28;1124;-45
2023/08/13 09:11:14;;;;;;;;;;;;;;;17.84;47.75;101128.97;5095812;28;960;-47
2023/08/13 09:13:49;;;;;;;;;;;;;;;17.72;47.39;101137.47;5096494;28;1038;-43
2023/08/13 09:16:15;;;;;;;;;;;;;;;17.76;47.04;101116.56;5093680;28;1849;-42
2023/08/13 09:18:40;;;;;;;;;;;;;;;17.72;46.67;101120.13;5086061;28;1323;-43
2023/08/13 09:21:06;;;;;;;;;;;;;;;17.66;46.66;101127.56;5096368;28;1094;-47
2023/08/13 09:23:31;;;;;;;;;;;;;;;17.72;46.52;101114.63;5071001;28;1917;-46
2023/08/13 09:25:59;;;;;;;;;;;;;;;17.70;46.39;101131.41;5090875;28;1092;-42
2023/08/13 09:28:25;;;;;;;;;;;;;;;17.71;46.29;101115.72;5078195;28;1154;-43
2023/08/13 09:30:50;;;;;;;;;;;;;;;17.68;46.44;101119.84;5095975;28;1046;-45
2023/08/13 09:33:16;;;;;;;;;;;;;;;17.64;46.52;101118.75;5096399;28;1077;-46
2023/08/13 09:35:42;;;;;;;;;;;;;;;17.65;46.25;101114.09;5095819;28;869;-43
2023/08/13 09:38:08;;;;;;;;;;;;;;;17.65;46.33;101114.91;5096711;28;1026;-46
2023/08/13 09:40:34;;;;;;;;;;;;;;;17.65;46.39;101114.91;5096619;28;1197;-48
2023/08/13 09:42:59;;;;;;;;;;;;;;;17.74;46.41;101105.03;5095811;28;1988;-45
2023/08/13 09:45:28;;;;;;;;;;;;;;;17.68;46.37;101114.34;5077934;28;1183;-46
2023/08/13 09:47:54;;;;;;;;;;;;;;;17.66;46.62;101115.75;5075374;28;1031;-43
2023/08/13 09:50:20;;;;;;;;;;;;;;;17.66;46.66;101115.75;5084976;28;1319;-43
2023/08/13 09:52:46;;;;;;;;;;;;;;;17.69;46.41;101112.44;5086757;28;1101;-46
2023/08/13 09:55:12;;;;;;;;;;;;;;;17.68;46.35;101117.09;5091626;28;1030;-49
2023/08/13 09:57:38;;;;;;;;;;;;;;;17.72;46.26;101112.69;5096028;28;1011;-49
2023/08/13 10:00:05;;;;;;;;;;;;;;;17.71;46.27;101113.81;5095735;28;1118;-44
2023/08/13 10:02:30;;;;;;;;;;;;;;;17.75;46.23;101109.44;5095697;28;1034;-44
2023/08/13 10:04:56;;;;;;;;;;;;;;;17.72;46.25;101115.44;5095232;28;1901;-48
2023/08/13 10:07:22;;;;;;;;;;;;;;;17.76;45.91;101116.56;5091899;28;1272;-49
2023/08/13 10:09:48;;;;;;;;;;;;;;;17.69;46.36;101109.69;5076079;28;1026;-46
2023/08/13 10:12:13;;;;;;;;;;;;;;;17.71;46.36;101105.56;5096180;28;918;-48
2023/08/13 10:14:39;;;;;;;;;;;;;;;17.69;46.15;101105.00;5081480;28;1020;-48
2023/08/13 10:17:06;;;;;;;;;;;;;;;17.57;46.58;101101.69;5097625;28;2712;-47
2023/08/13 10:19:31;;;;;;;;;;;;;;;17.71;46.13;101108.31;5099625;28;1122;-46
2023/08/13 10:21:57;;;;;;;;;;;;;;;17.68;46.20;101097.84;5100045;28;1189;-48
2023/08/13 10:24:23;;;;;;;;;;;;;;;17.60;46.61;101101.16;5087917;28;1967;-43
2023/08/13 10:26:49;;;;;;;;;;;;;;;17.66;46.43;101100.06;5099746;28;1110;-47
2023/08/13 10:29:17;;;;;;;;;;;;;;;17.55;46.53;101098.41;5099474;28;987;-46
2023/08/13 10:31:49;;;;;;;;;;;;;;;17.62;46.27;101094.25;5099521;28;1149;-47
2023/08/13 10:34:16;;;;;;;;;;;;;;;17.71;46.17;101094.56;5086046;28;1081;-47
2023/08/13 10:36:45;;;;;;;;;;;;;;;17.65;46.10;101098.41;5099225;28;881;-42
2023/08/13 10:39:30;;;;;;;;;;;;;;;17.53;46.40;101089.56;5098175;28;1145;-43
2023/08/13 10:41:55;;;;;;;;;;;;;;;17.62;46.04;101085.19;5099783;28;1031;-44
2023/08/13 10:44:47;;;;;;;;;;;;;;;17.65;46.21;101089.34;5099244;28;1906;-45
2023/08/13 10:47:13;;;;;;;;;;;;;;;17.68;45.95;101091.53;5093640;28;2476;-45
2023/08/13 10:49:40;;;;;;;;;;;;;;;17.63;46.31;101084.13;5098719;28;995;-44
2023/08/13 10:52:06;;;;;;;;;;;;;;;17.58;46.34;101079.41;5098956;28;1175;-47
2023/08/13 10:54:32;;;;;;;;;;;;;;;17.62;46.14;101093.44;5098945;28;1103;-45
2023/08/13 10:56:58;;;;;;;;;;;;;;;17.73;45.83;101091.53;5098722;28;1190;-48
2023/08/13 10:59:27;;;;;;;;;;;;;;;17.53;46.21;101064.81;5097063;28;1309;-46
2023/08/13 11:02:15;;;;;;;;;;;;;;;17.61;46.06;101075.28;5081072;28;1159;-46
2023/08/13 11:04:42;;;;;;;;;;;;;;;17.61;45.97;101078.03;5098796;28;1902;-49
2023/08/13 11:07:08;;;;;;;;;;;;;;;17.55;45.97;101077.22;5089067;28;1312;-49
2023/08/13 11:09:34;;;;;;;;;;;;;;;17.63;46.10;101075.84;5098079;28;1011;-49
2023/08/13 11:11:59;;;;;;;;;;;;;;;17.62;45.93;101065.94;5097293;28;1558;-46
2023/08/13 11:14:25;;;;;;;;;;;;;;;18.39;46.86;101076.13;5098857;28;1074;-44
2023/08/13 11:16:51;;;;;;;;;;;;;;;18.06;47.63;101076.44;5080676;28;2492;-45
2023/08/13 11:19:17;;;;;;;;;;;;;;;17.94;47.43;101070.41;5080021;28;1086;-47
2023/08/13 11:21:43;;;;;;;;;;;;;;;17.87;47.19;101061.56;5098693;28;1034;-43
2023/08/13 11:24:09;;;;;;;;;;;;;;;17.81;47.09;101069.00;5097969;28;1897;-44
2023/08/13 11:26:34;;;;;;;;;;;;;;;17.80;46.58;101067.34;5098076;28;1026;-47
2023/08/13 11:29:00;;;;;;;;;;;;;;;17.81;46.62;101055.25;5098049;28;975;-48
2023/08/13 11:31:25;;;;;;;;;;;;;;;17.75;46.51;101062.69;5097999;28;1059;-48
2023/08/13 11:33:51;;;;;;;;;;;;;;;17.76;46.39;101050.56;5098487;28;1022;-47
2023/08/13 11:36:17;;;;;;;;;;;;;;;17.82;46.22;101045.06;5098002;28;1029;-47
2023/08/13 11:38:42;;;;;;;;;;;;;;;17.78;46.17;101040.13;5080222;28;1162;-47
2023/08/13 11:41:14;;;;;;;;;;;;;;;17.78;45.97;101040.13;5097677;28;1101;-45
2023/08/13 11:43:39;;;;;;;;;;;;;;;17.77;46.09;101057.72;5098081;28;1948;-49
2023/08/13 11:46:05;;;;;;;;;;;;;;;17.76;46.12;101035.97;5097208;28;2304;-48
2023/08/13 11:48:31;;;;;;;;;;;;;;;17.74;46.04;101050.00;5097651;28;912;-48
2023/08/13 11:51:13;;;;;;;;;;;;;;;17.78;45.71;101053.03;5097605;28;1185;-46
2023/08/13 11:53:45;;;;;;;;;;;;;;;17.70;45.99;101046.16;5097705;28;1019;-45
2023/08/13 11:56:11;;;;;;;;;;;;;;;17.77;45.92;101046.72;5096273;28;1325;-47
2023/08/13 11:58:36;;;;;;;;;;;;;;;17.70;46.22;101043.41;5096980;28;1344;-45
2023/08/13 12:01:03;;;;;;;;;;;;;;;17.76;46.09;101039.53;5093450;28;924;-44
2023/08/13 12:03:35;;;;;;;;;;;;;;;17.72;45.89;101043.94;5095210;28;1970;-48
2023/08/13 12:06:00;;;;;;;;;;;;;;;17.73;46.11;101042.03;5094200;28;1570;-46
2023/08/13 12:08:27;;;;;;;;;;;;;;;17.70;45.77;101046.16;5097515;28;954;-45
2023/08/13 12:10:52;;;;;;;;;;;;;;;17.77;45.94;101041.19;5079437;28;1143;-45
2023/08/13 12:13:18;;;;;;;;;;;;;;;17.77;45.84;101043.16;5097411;28;1129;-48
2023/08/13 12:15:44;;;;;;;;;;;;;;;17.69;45.95;101040.94;5097073;28;1934;-48
2023/08/13 12:18:09;;;;;;;;;;;;;;;17.69;46.04;101044.50;5097819;28;1197;-46
2023/08/13 12:20:35;;;;;;;;;;;;;;;17.72;45.98;101043.13;5097562;28;1069;-46
2023/08/13 12:23:00;;;;;;;;;;;;;;;17.70;45.85;101024.16;5096484;28;1962;-45
2023/08/13 12:25:26;;;;;;;;;;;;;;;17.64;45.84;101030.75;5092365;28;880;-49
2023/08/13 12:27:52;;;;;;;;;;;;;;;17.71;45.80;101031.31;5097019;28;1081;-49
2023/08/13 12:30:19;;;;;;;;;;;;;;;17.65;45.75;101024.16;5097034;28;1098;-48
2023/08/13 12:32:44;;;;;;;;;;;;;;;17.64;45.76;101024.44;5096473;28;1444;-49
2023/08/13 12:35:10;;;;;;;;;;;;;;;17.61;45.99;101018.38;5077114;28;918;-50
2023/08/13 12:37:35;;;;;;;;;;;;;;;17.67;45.97;101024.72;5097516;28;980;-49
2023/08/13 12:40:02;;;;;;;;;;;;;;;17.68;45.96;101025.53;5096711;28;1003;-48
2023/08/13 12:42:28;;;;;;;;;;;;;;;17.70;45.74;101015.91;5097167;28;1022;-49